Time;durP1;ratioP1;P1;durP2;ratioP2;P2;SDS_P1;SDS_P2;PMS_P1;PMS_P2;Temp;Humidity;BMP_temperature;BMP_pressure;BME280_temperature;BME280_humidity;BME280_pressure;Samples;Min_cycle;Max_cycle;Signal;HPM_P1;HPM_P2
2021/10/10 00:00:46;;;;;;;14.50;5.90;;;;;;;;;;4934588;29;20028;-65
2021/10/10 00:03:12;;;;;;;10.63;5.70;;;;;;;;;;4934442;29;20054;-61
2021/10/10 00:05:38;;;;;;;11.00;5.32;;;;;;;;;;4934652;29;20425;-66
2021/10/10 00:08:04;;;;;;;10.65;5.55;;;;;;;;;;4934336;29;20062;-64
2021/10/10 00:10:31;;;;;;;9.40;5.43;;;;;;;;;;4934450;29;20056;-61
2021/10/10 00:13:00;;;;;;;11.63;5.38;;;;;;;;;;4934570;29;20034;-61
2021/10/10 00:15:29;;;;;;;11.27;5.35;;;;;;;;;;4934216;29;20492;-63
2021/10/10 00:17:55;;;;;;;12.00;4.75;;;;;;;;;;4934421;29;20396;-64
2021/10/10 00:20:22;;;;;;;11.15;5.07;;;;;;;;;;4934170;29;20034;-61
2021/10/10 00:22:48;;;;;;;10.55;4.90;;;;;;;;;;4934095;29;20472;-65
2021/10/10 00:25:15;;;;;;;12.15;5.00;;;;;;;;;;4934207;29;20028;-61
2021/10/10 00:27:41;;;;;;;11.52;5.65;;;;;;;;;;4933852;29;20043;-64
2021/10/10 00:30:09;;;;;;;11.52;4.28;;;;;;;;;;4934122;29;20396;-61
2021/10/10 00:32:35;;;;;;;9.93;5.30;;;;;;;;;;4934160;29;20024;-61
2021/10/10 00:35:01;;;;;;;10.90;5.63;;;;;;;;;;4934102;29;20024;-62
2021/10/10 00:37:27;;;;;;;11.32;5.00;;;;;;;;;;4934018;29;20082;-64
2021/10/10 00:39:54;;;;;;;10.00;4.80;;;;;;;;;;4934094;29;20078;-61
2021/10/10 00:42:20;;;;;;;12.57;5.20;;;;;;;;;;4933946;29;20051;-67
2021/10/10 00:44:47;;;;;;;11.98;5.32;;;;;;;;;;4933843;29;20490;-72
2021/10/10 06:20:01;;;;;;;14.18;5.13;;;;;;;;;;5243334;23;19964;-59
2021/10/10 06:22:27;;;;;;;16.70;6.60;;;;;;;;;;4919621;29;20055;-60
2021/10/10 06:24:53;;;;;;;16.13;8.02;;;;;;;;;;4936442;29;20027;-59
2021/10/10 06:27:20;;;;;;;17.55;7.85;;;;;;;;;;4936188;29;20042;-61
2021/10/10 06:29:47;;;;;;;26.73;7.40;;;;;;;;;;4936185;29;20470;-60
2021/10/10 06:32:13;;;;;;;17.35;8.20;;;;;;;;;;4936274;29;20024;-61
2021/10/10 06:34:39;;;;;;;16.13;8.50;;;;;;;;;;4936460;29;20031;-62
2021/10/10 06:37:05;;;;;;;21.60;9.15;;;;;;;;;;4936288;29;20074;-61
2021/10/10 06:39:34;;;;;;;19.10;6.88;;;;;;;;;;4936040;29;20407;-62
2021/10/10 06:42:00;;;;;;;25.23;8.85;;;;;;;;;;4936101;29;20024;-61
2021/10/10 06:44:26;;;;;;;20.65;7.35;;;;;;;;;;4935839;29;20104;-62
2021/10/10 06:46:52;;;;;;;20.98;9.23;;;;;;;;;;4936060;29;20030;-62
2021/10/10 06:49:18;;;;;;;30.10;10.98;;;;;;;;;;4936133;29;20509;-61
2021/10/10 06:51:44;;;;;;;20.85;6.70;;;;;;;;;;4936142;29;20424;-60
2021/10/10 06:54:10;;;;;;;23.60;7.03;;;;;;;;;;4936015;29;20035;-61
2021/10/10 06:56:36;;;;;;;22.73;8.55;;;;;;;;;;4935838;29;20028;-63
2021/10/10 06:59:03;;;;;;;23.38;8.20;;;;;;;;;;4935811;29;20032;-60
2021/10/10 07:01:30;;;;;;;22.58;8.45;;;;;;;;;;4935648;29;20472;-63
2021/10/10 07:03:56;;;;;;;24.85;8.68;;;;;;;;;;4934805;29;20062;-66
2021/10/10 07:06:23;;;;;;;30.45;9.98;;;;;;;;;;4935528;29;20027;-61
2021/10/10 07:08:49;;;;;;;22.48;8.77;;;;;;;;;;4935961;29;20027;-60
2021/10/10 07:11:15;;;;;;;20.70;8.98;;;;;;;;;;4935266;29;20495;-62
2021/10/10 07:13:42;;;;;;;26.65;9.00;;;;;;;;;;4917602;29;20075;-62
2021/10/10 07:16:08;;;;;;;22.95;9.10;;;;;;;;;;4934255;29;20033;-73
2021/10/10 07:18:47;;;;;;;21.48;7.40;;;;;;;;;;4933772;29;20035;-62
2021/10/10 07:26:12;;;;;;;23.98;8.20;;;;;;;;;;4933724;29;20020;-69
2021/10/10 07:28:39;;;;;;;23.35;7.60;;;;;;;;;;4933723;29;20446;-68
2021/10/10 07:31:05;;;;;;;21.23;7.28;;;;;;;;;;4933651;29;20028;-61
2021/10/10 07:33:31;;;;;;;21.55;7.38;;;;;;;;;;4933951;29;20051;-67
2021/10/10 07:35:57;;;;;;;24.48;6.45;;;;;;;;;;4933496;29;20110;-62
2021/10/10 07:38:23;;;;;;;22.77;8.35;;;;;;;;;;4933774;29;20031;-63
2021/10/10 07:40:49;;;;;;;24.33;7.53;;;;;;;;;;4933587;29;20083;-70
2021/10/10 07:43:15;;;;;;;22.52;6.35;;;;;;;;;;4934333;29;20381;-61
2021/10/10 07:45:42;;;;;;;20.52;7.82;;;;;;;;;;4934534;29;20031;-65
2021/10/10 07:48:09;;;;;;;21.60;8.15;;;;;;;;;;4934830;29;20559;-67
2021/10/10 07:50:35;;;;;;;22.58;7.40;;;;;;;;;;4918025;29;20036;-61
2021/10/10 07:53:02;;;;;;;26.05;8.65;;;;;;;;;;4933987;29;20392;-62
2021/10/10 07:55:28;;;;;;;14.07;4.97;;;;;;;;;;4934467;29;20020;-66
2021/10/10 07:57:54;;;;;;;15.77;6.28;;;;;;;;;;4934323;29;20456;-61
2021/10/10 08:00:20;;;;;;;16.90;7.18;;;;;;;;;;4934254;29;20055;-61
2021/10/10 08:02:52;;;;;;;18.27;7.70;;;;;;;;;;4934525;29;20459;-66
2021/10/10 08:05:19;;;;;;;19.60;6.45;;;;;;;;;;4932719;29;20082;-62
2021/10/10 08:07:45;;;;;;;20.05;6.88;;;;;;;;;;4933176;29;20052;-67
2021/10/10 08:10:11;;;;;;;18.48;7.90;;;;;;;;;;4922893;29;20476;-62
2021/10/10 08:12:37;;;;;;;17.35;6.38;;;;;;;;;;4932756;29;20075;-66
2021/10/10 08:15:04;;;;;;;18.50;6.88;;;;;;;;;;4933122;29;20039;-70
2021/10/10 08:17:30;;;;;;;14.60;5.63;;;;;;;;;;4923421;29;20440;-71
2021/10/10 08:19:56;;;;;;;13.27;5.68;;;;;;;;;;4932402;29;20070;-61
2021/10/10 08:22:23;;;;;;;20.80;8.02;;;;;;;;;;4932952;29;20036;-61
2021/10/10 08:24:49;;;;;;;15.48;5.07;;;;;;;;;;4932861;29;20048;-65
2021/10/10 08:27:15;;;;;;;14.32;5.72;;;;;;;;;;4932085;29;20035;-62
2021/10/10 08:29:41;;;;;;;16.13;5.90;;;;;;;;;;4932615;29;20012;-64
2021/10/10 08:32:07;;;;;;;15.20;7.25;;;;;;;;;;4932673;29;20042;-62
2021/10/10 08:34:36;;;;;;;16.40;5.85;;;;;;;;;;4928950;29;20400;-65
2021/10/10 08:37:03;;;;;;;18.52;6.45;;;;;;;;;;4933647;29;20035;-60
2021/10/10 11:33:46;;;;;;;14.02;5.35;;;;;;;;;;4822657;27;20056;-79
2021/10/10 11:36:13;;;;;;;12.65;5.57;;;;;;;;;;4916249;29;20032;-64
2021/10/10 11:38:48;;;;;;;14.95;6.78;;;;;;;;;;4916374;29;20035;-77
2021/10/10 11:41:14;;;;;;;9.02;5.10;;;;;;;;;;4916038;29;20036;-59
2021/10/10 11:43:40;;;;;;;10.88;5.25;;;;;;;;;;4916312;29;20212;-75
2021/10/10 11:46:06;;;;;;;12.73;5.80;;;;;;;;;;4915613;29;20021;-75
2021/10/10 11:48:33;;;;;;;18.40;6.43;;;;;;;;;;4915155;29;20053;-72
2021/10/10 11:51:00;;;;;;;15.82;7.32;;;;;;;;;;4915129;29;20034;-72
2021/10/10 11:53:40;;;;;;;14.88;6.50;;;;;;;;;;4915496;29;20039;-62
2021/10/10 11:56:06;;;;;;;13.52;5.70;;;;;;;;;;4916078;29;20068;-78
2021/10/10 11:58:33;;;;;;;9.15;5.22;;;;;;;;;;4912567;29;20035;-74
2021/10/10 12:01:12;;;;;;;12.93;5.63;;;;;;;;;;4914712;29;20119;-58
2021/10/10 12:03:43;;;;;;;16.02;6.10;;;;;;;;;;4907161;29;20051;-68
2021/10/10 12:06:16;;;;;;;11.68;4.50;;;;;;;;;;4889346;29;20377;-75
2021/10/10 12:08:42;;;;;;;13.90;4.82;;;;;;;;;;4905534;29;20021;-58
2021/10/10 12:11:11;;;;;;;9.07;4.38;;;;;;;;;;4915652;29;20028;-59
2021/10/10 12:13:37;;;;;;;9.82;4.78;;;;;;;;;;4914769;29;20032;-58
2021/10/10 12:16:04;;;;;;;9.48;4.05;;;;;;;;;;4915113;29;20039;-65
2021/10/10 12:18:32;;;;;;;10.60;5.70;;;;;;;;;;4915423;29;20024;-65
2021/10/10 12:21:17;;;;;;;11.20;6.00;;;;;;;;;;4915310;29;20036;-60
2021/10/10 12:23:43;;;;;;;14.60;5.82;;;;;;;;;;4915335;29;20238;-59
2021/10/10 12:26:09;;;;;;;18.10;6.60;;;;;;;;;;4915183;29;20101;-61
2021/10/10 12:28:36;;;;;;;11.15;5.93;;;;;;;;;;4914972;29;20084;-76
2021/10/10 12:31:03;;;;;;;18.02;6.00;;;;;;;;;;4914719;29;20032;-63
2021/10/10 12:33:30;;;;;;;16.25;5.07;;;;;;;;;;4915187;29;20079;-62
2021/10/10 12:36:08;;;;;;;15.00;5.32;;;;;;;;;;4914934;29;20496;-75
2021/10/10 12:38:44;;;;;;;11.50;5.47;;;;;;;;;;4914996;29;20496;-63
2021/10/10 12:41:19;;;;;;;14.63;6.00;;;;;;;;;;4915021;29;20028;-74
2021/10/10 12:43:46;;;;;;;15.55;6.25;;;;;;;;;;4914665;29;20051;-69
2021/10/10 12:46:13;;;;;;;15.30;7.30;;;;;;;;;;4914764;29;20048;-69
2021/10/10 12:48:39;;;;;;;11.50;5.03;;;;;;;;;;4914752;29;20032;-64
2021/10/10 12:51:14;;;;;;;17.83;6.53;;;;;;;;;;4914975;29;20036;-60
2021/10/10 12:53:40;;;;;;;14.95;6.28;;;;;;;;;;4915113;29;20044;-62
2021/10/10 12:56:13;;;;;;;19.40;7.35;;;;;;;;;;4914680;29;20520;-73
2021/10/10 12:58:52;;;;;;;15.68;7.60;;;;;;;;;;4915006;29;20032;-76
2021/10/10 13:01:20;;;;;;;19.60;8.10;;;;;;;;;;4914841;29;20079;-67
2021/10/10 13:03:46;;;;;;;18.27;7.43;;;;;;;;;;4914952;29;20044;-61
2021/10/10 13:06:12;;;;;;;17.17;7.70;;;;;;;;;;4914851;29;20032;-70
2021/10/10 13:08:47;;;;;;;20.02;8.82;;;;;;;;;;4914652;29;20039;-64
2021/10/10 13:11:14;;;;;;;12.15;5.63;;;;;;;;;;4915064;29;20028;-62
2021/10/10 13:13:40;;;;;;;22.05;7.25;;;;;;;;;;4915538;29;20035;-61
2021/10/10 13:16:06;;;;;;;13.65;7.15;;;;;;;;;;4918691;29;20048;-75
2021/10/10 13:18:32;;;;;;;13.48;6.70;;;;;;;;;;4918915;29;20107;-62
2021/10/10 13:20:58;;;;;;;12.02;5.97;;;;;;;;;;4918406;29;20062;-77
2021/10/10 13:23:24;;;;;;;20.00;7.22;;;;;;;;;;4918119;29;20040;-60
2021/10/10 13:25:51;;;;;;;19.48;6.50;;;;;;;;;;4918550;29;20464;-61
2021/10/10 13:28:17;;;;;;;16.92;5.63;;;;;;;;;;4918458;29;20044;-61
2021/10/10 13:30:44;;;;;;;16.70;7.18;;;;;;;;;;4918493;29;20075;-61
2021/10/10 13:33:10;;;;;;;16.02;6.30;;;;;;;;;;4918285;29;20064;-75
2021/10/10 13:35:40;;;;;;;13.05;5.88;;;;;;;;;;4918445;29;20028;-78
2021/10/10 13:38:06;;;;;;;14.75;7.07;;;;;;;;;;4918202;29;20032;-62
2021/10/10 13:40:32;;;;;;;18.85;8.15;;;;;;;;;;4918205;29;20028;-61
2021/10/10 13:42:58;;;;;;;21.88;8.82;;;;;;;;;;4917951;29;20036;-60
2021/10/10 13:45:24;;;;;;;15.75;6.78;;;;;;;;;;4918174;29;20391;-76
2021/10/10 13:47:51;;;;;;;16.48;7.65;;;;;;;;;;4914377;29;20091;-63
2021/10/10 13:50:17;;;;;;;12.07;5.90;;;;;;;;;;4907535;29;20056;-61
2021/10/10 13:52:43;;;;;;;17.65;6.47;;;;;;;;;;4906769;29;20032;-62
2021/10/10 13:55:09;;;;;;;18.75;7.65;;;;;;;;;;4907220;29;20025;-61
2021/10/10 13:57:39;;;;;;;15.18;6.88;;;;;;;;;;4917352;29;20020;-62
2021/10/10 14:00:07;;;;;;;22.02;8.75;;;;;;;;;;4917859;29;20036;-61
2021/10/10 14:02:33;;;;;;;20.75;8.80;;;;;;;;;;4917765;29;20095;-74
2021/10/10 14:04:59;;;;;;;18.38;6.25;;;;;;;;;;4917652;29;20115;-63
2021/10/10 14:07:25;;;;;;;19.88;7.63;;;;;;;;;;4917615;29;20027;-62
2021/10/10 14:09:51;;;;;;;23.35;7.32;;;;;;;;;;4917682;29;20468;-62
2021/10/10 14:12:17;;;;;;;18.00;8.90;;;;;;;;;;4917651;29;20072;-73
2021/10/10 14:14:44;;;;;;;23.27;8.88;;;;;;;;;;4917542;29;20119;-63
2021/10/10 14:17:10;;;;;;;25.45;9.32;;;;;;;;;;4917737;29;20111;-65
2021/10/10 14:19:37;;;;;;;23.30;9.25;;;;;;;;;;4917652;29;20097;-66
2021/10/10 14:22:03;;;;;;;20.80;7.75;;;;;;;;;;4917334;29;20052;-62
2021/10/10 14:24:29;;;;;;;22.30;9.63;;;;;;;;;;4917605;29;20032;-59
2021/10/10 14:26:56;;;;;;;19.42;8.30;;;;;;;;;;4914916;29;20067;-68
2021/10/10 14:29:22;;;;;;;24.73;9.43;;;;;;;;;;4917266;29;20032;-74
2021/10/10 14:31:48;;;;;;;25.92;11.13;;;;;;;;;;4916441;29;20052;-61
2021/10/10 14:34:14;;;;;;;22.33;10.13;;;;;;;;;;4917743;29;20040;-71
2021/10/10 14:36:40;;;;;;;23.50;12.02;;;;;;;;;;4911850;29;20029;-74
2021/10/10 14:39:07;;;;;;;17.95;8.48;;;;;;;;;;4899256;29;20035;-73
2021/10/10 14:44:36;;;;;;;23.35;9.88;;;;;;;;;;4911741;29;20044;-73
2021/10/10 14:49:32;;;;;;;22.25;10.10;;;;;;;;;;4910794;29;20477;-75
2021/10/10 14:52:00;;;;;;;30.55;11.18;;;;;;;;;;4904821;29;20028;-74
2021/10/10 14:54:26;;;;;;;21.98;9.07;;;;;;;;;;4905619;29;20040;-72
2021/10/10 14:56:53;;;;;;;20.92;8.88;;;;;;;;;;4907810;29;20032;-72
2021/10/10 14:59:19;;;;;;;21.98;8.73;;;;;;;;;;4903685;29;20032;-75
2021/10/10 15:01:45;;;;;;;22.65;8.88;;;;;;;;;;4902744;29;20088;-74
2021/10/10 15:04:11;;;;;;;22.48;9.02;;;;;;;;;;4905601;29;20091;-75
2021/10/10 15:06:37;;;;;;;22.70;8.82;;;;;;;;;;4892356;29;20492;-74
2021/10/10 15:09:04;;;;;;;22.55;10.48;;;;;;;;;;4889501;29;20032;-69
2021/10/10 15:11:30;;;;;;;21.98;9.13;;;;;;;;;;4906692;29;20056;-74
2021/10/10 15:13:57;;;;;;;18.83;8.63;;;;;;;;;;4903357;29;20075;-74
2021/10/10 15:16:23;;;;;;;21.48;8.48;;;;;;;;;;4903207;29;20031;-73
2021/10/10 15:18:49;;;;;;;30.30;10.52;;;;;;;;;;4903927;29;20038;-74
2021/10/10 15:21:15;;;;;;;26.80;10.13;;;;;;;;;;4901907;29;20120;-75
2021/10/10 15:23:41;;;;;;;22.98;8.90;;;;;;;;;;4884879;29;20095;-72
2021/10/10 15:26:07;;;;;;;23.80;8.60;;;;;;;;;;4906117;29;20029;-74
2021/10/10 15:28:33;;;;;;;19.38;9.35;;;;;;;;;;4910720;29;20399;-69
2021/10/10 15:31:00;;;;;;;24.50;9.02;;;;;;;;;;4902824;29;20031;-73
2021/10/10 15:33:29;;;;;;;23.52;10.57;;;;;;;;;;4909379;29;20047;-73
2021/10/10 15:35:56;;;;;;;23.20;9.15;;;;;;;;;;4900557;29;20179;-73
2021/10/10 15:38:23;;;;;;;25.63;9.25;;;;;;;;;;4905540;29;20091;-74
2021/10/10 15:40:49;;;;;;;22.95;8.93;;;;;;;;;;4915976;29;20063;-66
2021/10/10 15:43:16;;;;;;;25.50;10.23;;;;;;;;;;4915861;29;20091;-62
2021/10/10 15:45:42;;;;;;;21.05;10.50;;;;;;;;;;4915967;29;20499;-72
2021/10/10 15:48:09;;;;;;;35.55;11.30;;;;;;;;;;4915145;29;20040;-72
2021/10/10 15:50:35;;;;;;;29.58;11.05;;;;;;;;;;4915584;29;20047;-65
2021/10/10 15:53:03;;;;;;;29.23;12.35;;;;;;;;;;4915742;29;20032;-71
2021/10/10 15:55:30;;;;;;;25.20;11.02;;;;;;;;;;4914940;29;20103;-72
2021/10/10 15:57:57;;;;;;;25.33;10.20;;;;;;;;;;4915379;29;20035;-67
2021/10/10 16:00:23;;;;;;;32.20;13.10;;;;;;;;;;4915176;29;20036;-73
2021/10/10 16:02:49;;;;;;;27.00;12.68;;;;;;;;;;4915309;29;20039;-68
2021/10/10 16:05:15;;;;;;;33.33;12.65;;;;;;;;;;4915438;29;20043;-67
2021/10/10 16:07:42;;;;;;;29.42;11.80;;;;;;;;;;4915263;29;20103;-71
2021/10/10 16:10:08;;;;;;;26.80;11.90;;;;;;;;;;4915540;29;20072;-61
2021/10/10 16:12:34;;;;;;;28.10;10.50;;;;;;;;;;4892934;29;20032;-65
2021/10/10 16:15:00;;;;;;;30.58;12.75;;;;;;;;;;4905557;29;20028;-65
2021/10/10 16:17:26;;;;;;;27.17;11.10;;;;;;;;;;4903845;29;20041;-65
2021/10/10 16:19:53;;;;;;;33.67;11.75;;;;;;;;;;4904242;29;20133;-70
2021/10/10 16:22:24;;;;;;;34.55;13.13;;;;;;;;;;4905137;29;20038;-63
2021/10/10 16:24:50;;;;;;;29.15;9.48;;;;;;;;;;4904860;29;20028;-62
2021/10/10 16:27:16;;;;;;;24.00;11.30;;;;;;;;;;4905148;29;20028;-70
2021/10/10 16:29:42;;;;;;;24.58;10.32;;;;;;;;;;4902981;29;20024;-62
2021/10/10 16:32:08;;;;;;;29.40;12.13;;;;;;;;;;4904440;29;20040;-67
2021/10/10 16:34:47;;;;;;;30.73;11.25;;;;;;;;;;4904670;29;20040;-64
2021/10/10 16:42:50;;;;;;;26.98;10.30;;;;;;;;;;4819662;29;20535;-68
2021/10/10 16:45:16;;;;;;;28.33;10.90;;;;;;;;;;4819955;29;20038;-71
2021/10/10 16:47:42;;;;;;;24.65;10.95;;;;;;;;;;4840319;29;20048;-62
2021/10/10 16:50:08;;;;;;;28.10;11.77;;;;;;;;;;4856087;29;20058;-69
2021/10/10 16:52:34;;;;;;;29.45;11.10;;;;;;;;;;4856407;29;20044;-65
2021/10/10 16:55:00;;;;;;;20.30;8.57;;;;;;;;;;4847839;29;20034;-69
2021/10/10 16:57:26;;;;;;;26.15;10.45;;;;;;;;;;4837059;29;20042;-69
2021/10/10 16:59:52;;;;;;;25.70;9.43;;;;;;;;;;4837008;29;20092;-69
2021/10/10 17:02:18;;;;;;;26.23;9.35;;;;;;;;;;4836787;29;20050;-67
2021/10/10 17:04:44;;;;;;;21.10;9.85;;;;;;;;;;4837138;29;20137;-70
2021/10/10 17:07:10;;;;;;;26.00;9.85;;;;;;;;;;4836959;29;20037;-68
2021/10/10 17:09:36;;;;;;;24.88;9.32;;;;;;;;;;4837239;29;20034;-67
2021/10/10 17:12:03;;;;;;;21.10;9.73;;;;;;;;;;4901208;29;20100;-63
2021/10/10 17:14:29;;;;;;;17.45;7.55;;;;;;;;;;4904008;29;20033;-63
2021/10/10 17:16:55;;;;;;;23.25;9.43;;;;;;;;;;4907174;29;20055;-63
2021/10/10 17:19:23;;;;;;;24.65;9.77;;;;;;;;;;4902346;29;20042;-63
2021/10/10 17:21:50;;;;;;;20.23;8.43;;;;;;;;;;4904587;29;20386;-62
2021/10/10 17:24:16;;;;;;;24.55;8.80;;;;;;;;;;4904648;29;20040;-62
2021/10/10 17:26:45;;;;;;;24.35;8.93;;;;;;;;;;4903188;29;20013;-62
2021/10/10 17:29:12;;;;;;;19.17;8.38;;;;;;;;;;4904269;29;20031;-64
2021/10/10 17:31:38;;;;;;;26.23;10.68;;;;;;;;;;4910168;29;20047;-64
2021/10/10 17:34:05;;;;;;;25.13;8.38;;;;;;;;;;4914587;29;20044;-62
2021/10/10 17:36:34;;;;;;;29.27;9.05;;;;;;;;;;4911339;29;20041;-66
2021/10/10 17:39:00;;;;;;;29.40;9.50;;;;;;;;;;4908384;29;20494;-63
2021/10/10 17:41:26;;;;;;;29.00;9.63;;;;;;;;;;4913919;29;20097;-68
2021/10/10 17:43:52;;;;;;;22.52;7.72;;;;;;;;;;4909052;29;20063;-62
2021/10/10 17:46:20;;;;;;;29.77;10.73;;;;;;;;;;4886894;29;20028;-61
2021/10/10 17:48:50;;;;;;;25.75;9.25;;;;;;;;;;4904818;29;20029;-64
2021/10/10 17:51:16;;;;;;;29.10;10.88;;;;;;;;;;4905757;29;20028;-65
2021/10/10 17:53:43;;;;;;;28.92;10.02;;;;;;;;;;4886378;29;20076;-76
2021/10/10 17:56:14;;;;;;;21.10;10.52;;;;;;;;;;4901915;29;20032;-60
2021/10/10 17:59:09;;;;;;;31.00;11.95;;;;;;;;;;4913514;29;20107;-59
2021/10/10 18:02:45;;;;;;;25.60;8.30;;;;;;;;;;4909476;29;20075;-64
2021/10/10 18:12:47;;;;;;;44.15;8.57;;;;;;;;;;4916723;29;20036;-74
2021/10/10 18:15:15;;;;;;;23.35;9.30;;;;;;;;;;4916559;29;20028;-57
2021/10/10 18:17:41;;;;;;;19.95;6.22;;;;;;;;;;4916762;29;20024;-58
2021/10/10 18:20:07;;;;;;;27.20;11.23;;;;;;;;;;4917180;29;20051;-53
2021/10/10 18:22:33;;;;;;;24.67;10.73;;;;;;;;;;4917065;29;20036;-66
2021/10/10 18:25:00;;;;;;;26.98;11.50;;;;;;;;;;4916687;29;20026;-61
2021/10/10 18:27:26;;;;;;;24.95;10.60;;;;;;;;;;4916235;29;20361;-60
2021/10/10 18:29:52;;;;;;;23.58;10.82;;;;;;;;;;4917050;29;20025;-69
2021/10/10 18:32:18;;;;;;;23.90;9.98;;;;;;;;;;4916692;29;20044;-60
2021/10/10 18:34:44;;;;;;;26.80;11.00;;;;;;;;;;4915358;29;20031;-61
2021/10/10 18:37:10;;;;;;;19.40;10.02;;;;;;;;;;4900470;29;20032;-61
2021/10/10 18:39:36;;;;;;;23.50;9.25;;;;;;;;;;4897211;29;20425;-60
2021/10/10 18:42:03;;;;;;;26.67;8.20;;;;;;;;;;4897524;29;20108;-62
2021/10/10 18:44:29;;;;;;;26.38;9.82;;;;;;;;;;4897522;29;20037;-61
2021/10/10 18:46:55;;;;;;;23.70;9.98;;;;;;;;;;4897646;29;20049;-63
2021/10/10 18:49:21;;;;;;;23.67;9.18;;;;;;;;;;4897224;29;20084;-61
2021/10/10 18:51:48;;;;;;;22.08;8.88;;;;;;;;;;4897639;29;20024;-64
2021/10/10 18:54:14;;;;;;;26.75;10.10;;;;;;;;;;4897441;29;20064;-65
2021/10/10 18:56:40;;;;;;;22.13;8.43;;;;;;;;;;4910466;29;20827;-70
2021/10/10 18:59:07;;;;;;;29.13;10.90;;;;;;;;;;4916377;29;20086;-72
2021/10/10 19:01:33;;;;;;;21.15;9.32;;;;;;;;;;4915905;29;20059;-67
2021/10/10 19:03:59;;;;;;;23.58;10.07;;;;;;;;;;4916317;29;20043;-70
2021/10/10 19:06:26;;;;;;;27.60;10.88;;;;;;;;;;4915917;29;20028;-72
2021/10/10 19:08:52;;;;;;;25.15;9.70;;;;;;;;;;4916358;29;20036;-69
2021/10/10 19:11:20;;;;;;;22.67;8.95;;;;;;;;;;4906147;29;20111;-69
2021/10/10 19:13:49;;;;;;;18.80;8.20;;;;;;;;;;4899784;29;20482;-70
2021/10/10 19:16:15;;;;;;;18.92;7.85;;;;;;;;;;4907028;29;20031;-68
2021/10/10 19:18:42;;;;;;;22.88;9.18;;;;;;;;;;4914367;29;20032;-70
2021/10/10 19:21:09;;;;;;;26.17;9.50;;;;;;;;;;4911042;29;20020;-67
2021/10/10 19:23:35;;;;;;;24.30;8.80;;;;;;;;;;4906474;29;20044;-68
2021/10/10 19:26:01;;;;;;;25.33;9.38;;;;;;;;;;4912281;29;20112;-69
2021/10/10 19:28:27;;;;;;;27.63;9.73;;;;;;;;;;4914262;29;20369;-68
2021/10/10 19:30:53;;;;;;;21.35;9.27;;;;;;;;;;4914584;29;20112;-70
2021/10/10 19:33:19;;;;;;;21.00;9.20;;;;;;;;;;4913291;29;20176;-68
2021/10/10 19:35:45;;;;;;;21.58;7.82;;;;;;;;;;4910390;29;20028;-70
2021/10/10 19:38:11;;;;;;;23.50;7.47;;;;;;;;;;4903969;29;20104;-69
2021/10/10 19:40:37;;;;;;;20.45;8.80;;;;;;;;;;4906871;29;20510;-68
2021/10/10 19:43:04;;;;;;;24.90;9.10;;;;;;;;;;4904003;29;20123;-67
2021/10/10 19:45:30;;;;;;;19.85;8.27;;;;;;;;;;4906069;29;20149;-71
2021/10/10 19:47:56;;;;;;;20.48;8.07;;;;;;;;;;4913626;29;20536;-73
2021/10/10 19:50:23;;;;;;;21.85;9.27;;;;;;;;;;4913769;29;20032;-78
2021/10/10 19:52:49;;;;;;;20.13;8.80;;;;;;;;;;4905330;29;20024;-75
2021/10/10 19:55:15;;;;;;;18.35;7.18;;;;;;;;;;4904957;29;20502;-62
2021/10/10 19:57:41;;;;;;;25.77;8.13;;;;;;;;;;4906543;29;20160;-58
2021/10/10 20:00:08;;;;;;;21.08;8.45;;;;;;;;;;4902070;29;20110;-78
2021/10/10 20:02:34;;;;;;;21.10;8.75;;;;;;;;;;4909653;29;20122;-71
2021/10/10 20:05:00;;;;;;;20.23;8.07;;;;;;;;;;4907172;29;20043;-79
2021/10/10 20:07:26;;;;;;;16.98;7.80;;;;;;;;;;4912847;29;20106;-75
2021/10/10 20:09:53;;;;;;;22.10;7.38;;;;;;;;;;4911783;29;20066;-74
2021/10/10 20:12:19;;;;;;;18.63;6.95;;;;;;;;;;4913894;29;20020;-72
2021/10/10 20:14:45;;;;;;;13.52;6.82;;;;;;;;;;4914197;29;20097;-80
2021/10/10 20:17:11;;;;;;;20.10;6.70;;;;;;;;;;4914369;29;20036;-71
2021/10/10 20:19:37;;;;;;;14.52;7.57;;;;;;;;;;4906232;29;20404;-73
2021/10/10 20:22:03;;;;;;;19.13;6.97;;;;;;;;;;4885384;29;20405;-80
2021/10/10 20:24:29;;;;;;;16.80;7.10;;;;;;;;;;4901093;29;20782;-75
2021/10/10 20:26:55;;;;;;;16.95;6.55;;;;;;;;;;4905304;29;20020;-68
2021/10/10 20:29:21;;;;;;;18.42;7.30;;;;;;;;;;4906041;29;20027;-80
2021/10/10 20:31:48;;;;;;;17.80;6.93;;;;;;;;;;4902877;29;20044;-74
2021/10/10 20:34:15;;;;;;;17.77;7.18;;;;;;;;;;4902188;29;20110;-60
2021/10/10 20:36:41;;;;;;;15.57;6.05;;;;;;;;;;4904669;29;20040;-59
2021/10/10 20:39:07;;;;;;;19.92;6.63;;;;;;;;;;4905416;29;20035;-73
2021/10/10 20:41:34;;;;;;;18.52;7.13;;;;;;;;;;4902392;29;20505;-58
2021/10/10 20:44:00;;;;;;;17.95;7.97;;;;;;;;;;4888014;29;20038;-75
2021/10/10 20:46:27;;;;;;;19.65;7.50;;;;;;;;;;4913496;29;20035;-74
2021/10/10 20:48:53;;;;;;;22.52;6.43;;;;;;;;;;4913545;29;20024;-82
2021/10/10 20:51:20;;;;;;;16.15;6.32;;;;;;;;;;4913803;29;20028;-78
2021/10/10 20:53:46;;;;;;;20.23;7.55;;;;;;;;;;4901351;29;20040;-75
2021/10/10 20:56:16;;;;;;;16.45;7.97;;;;;;;;;;4908801;29;20059;-74
2021/10/10 20:58:42;;;;;;;15.20;5.90;;;;;;;;;;4897873;29;20047;-65
2021/10/10 21:01:14;;;;;;;17.35;6.80;;;;;;;;;;4878126;29;20472;-71
2021/10/10 21:03:41;;;;;;;18.85;6.13;;;;;;;;;;4896956;29;20155;-67
2021/10/10 21:06:08;;;;;;;15.63;6.03;;;;;;;;;;4902574;29;20025;-66
2021/10/10 21:08:34;;;;;;;11.32;5.88;;;;;;;;;;4904250;29;20035;-66
2021/10/10 21:11:01;;;;;;;17.55;7.15;;;;;;;;;;4903679;29;20035;-64
2021/10/10 21:13:27;;;;;;;16.25;6.80;;;;;;;;;;4912253;29;20032;-60
2021/10/10 21:15:53;;;;;;;17.23;6.18;;;;;;;;;;4911053;29;20056;-64
2021/10/10 21:18:19;;;;;;;18.60;7.10;;;;;;;;;;4906702;29;20036;-74
2021/10/10 21:20:46;;;;;;;13.93;6.40;;;;;;;;;;4898060;29;20042;-67
2021/10/10 21:23:12;;;;;;;21.50;7.75;;;;;;;;;;4904106;29;20048;-62
2021/10/10 21:25:38;;;;;;;16.35;6.80;;;;;;;;;;4898670;29;20035;-68
2021/10/10 21:28:08;;;;;;;20.63;8.30;;;;;;;;;;4900064;29;20028;-61
2021/10/10 21:35:58;;;;;;;19.65;7.47;;;;;;;;;;4830026;29;20080;-60
2021/10/10 21:38:24;;;;;;;16.45;6.35;;;;;;;;;;4837132;29;20137;-64
2021/10/10 21:40:50;;;;;;;21.38;8.52;;;;;;;;;;4837229;29;20251;-63
2021/10/10 21:43:17;;;;;;;23.75;8.00;;;;;;;;;;4826459;29;20046;-64
2021/10/10 21:45:43;;;;;;;21.52;7.70;;;;;;;;;;4825977;29;20113;-64
2021/10/10 21:48:11;;;;;;;19.02;7.55;;;;;;;;;;4835710;29;20386;-59
2021/10/10 21:50:37;;;;;;;20.10;7.60;;;;;;;;;;4827769;29;20538;-60
2021/10/10 21:53:03;;;;;;;21.08;7.50;;;;;;;;;;4822546;29;20641;-60
2021/10/10 21:55:29;;;;;;;20.20;7.38;;;;;;;;;;4822137;29;20040;-60
2021/10/10 21:57:55;;;;;;;13.75;5.78;;;;;;;;;;4835836;29;20578;-64
2021/10/10 22:00:40;;;;;;;19.42;7.07;;;;;;;;;;4831194;29;20042;-58
2021/10/10 22:03:06;;;;;;;18.60;7.07;;;;;;;;;;4830776;29;20042;-63
2021/10/10 22:05:32;;;;;;;15.27;6.15;;;;;;;;;;4831144;29;20045;-63
2021/10/10 22:07:58;;;;;;;13.95;7.35;;;;;;;;;;4834662;29;20125;-62
2021/10/10 22:10:25;;;;;;;15.15;6.57;;;;;;;;;;4871399;29;20064;-61
2021/10/10 22:12:55;;;;;;;16.98;6.22;;;;;;;;;;4901834;29;20060;-59
2021/10/10 22:15:21;;;;;;;14.60;6.93;;;;;;;;;;4912742;29;20043;-66
2021/10/10 22:17:48;;;;;;;15.60;6.65;;;;;;;;;;4907941;29;20024;-64
2021/10/10 22:20:15;;;;;;;16.77;7.00;;;;;;;;;;4910276;29;20072;-67
2021/10/10 22:22:41;;;;;;;13.15;5.45;;;;;;;;;;4917464;29;20048;-70
2021/10/10 22:25:16;;;;;;;14.80;6.75;;;;;;;;;;4917312;29;20055;-65
2021/10/10 22:30:22;;;;;;;15.77;7.03;;;;;;;;;;4903248;29;20088;-61
2021/10/10 22:32:48;;;;;;;21.13;8.07;;;;;;;;;;4916650;29;20048;-62
2021/10/10 22:35:14;;;;;;;10.77;5.95;;;;;;;;;;4917062;29;20035;-62
2021/10/10 22:37:40;;;;;;;16.58;7.72;;;;;;;;;;4917253;29;20036;-71
2021/10/10 22:40:07;;;;;;;13.50;6.72;;;;;;;;;;4916905;29;20070;-63
2021/10/10 22:42:33;;;;;;;19.05;8.38;;;;;;;;;;4900355;29;20111;-66
2021/10/10 22:45:00;;;;;;;16.00;7.28;;;;;;;;;;4917055;29;20040;-60
2021/10/10 22:47:26;;;;;;;17.45;7.72;;;;;;;;;;4916493;29;20024;-64
2021/10/10 22:49:53;;;;;;;15.82;7.88;;;;;;;;;;4916856;29;20056;-63
2021/10/10 22:52:19;;;;;;;18.52;8.90;;;;;;;;;;4916828;29;20028;-65
2021/10/10 22:54:45;;;;;;;15.98;8.32;;;;;;;;;;4916815;29;20507;-64
2021/10/10 22:57:11;;;;;;;18.45;8.40;;;;;;;;;;4917023;29;20111;-59
2021/10/10 22:59:38;;;;;;;21.00;9.20;;;;;;;;;;4916625;29;20064;-74
2021/10/10 23:02:04;;;;;;;20.83;9.57;;;;;;;;;;4916518;29;20036;-67
2021/10/10 23:04:30;;;;;;;21.48;8.68;;;;;;;;;;4916812;29;20127;-64
2021/10/10 23:06:56;;;;;;;23.52;9.45;;;;;;;;;;4916544;29;20038;-70
2021/10/10 23:09:22;;;;;;;19.15;8.45;;;;;;;;;;4916726;29;20046;-67
2021/10/10 23:11:48;;;;;;;19.70;9.65;;;;;;;;;;4916333;29;20036;-69
2021/10/10 23:14:14;;;;;;;20.90;8.18;;;;;;;;;;4916479;29;20068;-60
2021/10/10 23:16:40;;;;;;;18.65;9.38;;;;;;;;;;4916675;29;20484;-72
2021/10/10 23:19:06;;;;;;;18.63;8.40;;;;;;;;;;4916739;29;20477;-65
2021/10/10 23:21:33;;;;;;;20.50;9.35;;;;;;;;;;4899262;29;20043;-72
2021/10/10 23:23:59;;;;;;;22.13;8.85;;;;;;;;;;4916514;29;20040;-67
2021/10/10 23:26:25;;;;;;;17.88;7.80;;;;;;;;;;4899109;29;20492;-66